sensor_id;sensor_type;location;lat;lon;timestamp;P1;durP1;ratioP1;P2;durP2;ratioP2
19171;SDS011;9718;52.200;21.052;2022-09-09T00:04:13;13.13;;;4.50;;
19171;SDS011;9718;52.200;21.052;2022-09-09T00:06:56;10.23;;;5.10;;
19171;SDS011;9718;52.200;21.052;2022-09-09T00:09:40;12.23;;;5.53;;
19171;SDS011;9718;52.200;21.052;2022-09-09T00:12:29;12.77;;;5.50;;
19171;SDS011;9718;52.200;21.052;2022-09-09T00:15:02;11.83;;;5.47;;
19171;SDS011;9718;52.200;21.052;2022-09-09T00:17:43;14.30;;;5.70;;
19171;SDS011;9718;52.200;21.052;2022-09-09T00:20:48;11.90;;;5.47;;
19171;SDS011;9718;52.200;21.052;2022-09-09T00:23:25;13.53;;;5.90;;
19171;SDS011;9718;52.200;21.052;2022-09-09T00:28:39;13.13;;;5.87;;
19171;SDS011;9718;52.200;21.052;2022-09-09T00:31:23;12.30;;;5.60;;
19171;SDS011;9718;52.200;21.052;2022-09-09T00:33:55;12.43;;;6.40;;
19171;SDS011;9718;52.200;21.052;2022-09-09T00:36:29;15.90;;;6.10;;
19171;SDS011;9718;52.200;21.052;2022-09-09T00:39:00;10.73;;;5.77;;
19171;SDS011;9718;52.200;21.052;2022-09-09T00:49:49;16.07;;;6.80;;
19171;SDS011;9718;52.200;21.052;2022-09-09T00:52:47;16.70;;;5.93;;
19171;SDS011;9718;52.200;21.052;2022-09-09T00:58:06;13.70;;;6.30;;
19171;SDS011;9718;52.200;21.052;2022-09-09T01:08:53;12.30;;;6.03;;
19171;SDS011;9718;52.200;21.052;2022-09-09T01:17:01;13.70;;;6.20;;
19171;SDS011;9718;52.200;21.052;2022-09-09T01:27:37;13.87;;;6.50;;
19171;SDS011;9718;52.200;21.052;2022-09-09T01:30:13;16.87;;;6.93;;
19171;SDS011;9718;52.200;21.052;2022-09-09T01:32:43;24.43;;;7.40;;
19171;SDS011;9718;52.200;21.052;2022-09-09T01:38:12;19.83;;;6.83;;
19171;SDS011;9718;52.200;21.052;2022-09-09T01:40:40;15.63;;;6.60;;
19171;SDS011;9718;52.200;21.052;2022-09-09T01:43:08;16.63;;;7.37;;
19171;SDS011;9718;52.200;21.052;2022-09-09T01:45:35;15.40;;;6.87;;
19171;SDS011;9718;52.200;21.052;2022-09-09T01:48:05;15.63;;;6.60;;
19171;SDS011;9718;52.200;21.052;2022-09-09T01:50:32;15.03;;;7.53;;
19171;SDS011;9718;52.200;21.052;2022-09-09T01:52:59;15.07;;;6.80;;
19171;SDS011;9718;52.200;21.052;2022-09-09T01:55:33;16.20;;;7.10;;
19171;SDS011;9718;52.200;21.052;2022-09-09T02:00:46;14.00;;;6.97;;
19171;SDS011;9718;52.200;21.052;2022-09-09T02:03:36;13.73;;;6.40;;
19171;SDS011;9718;52.200;21.052;2022-09-09T02:08:47;13.70;;;6.93;;
19171;SDS011;9718;52.200;21.052;2022-09-09T02:11:18;14.13;;;6.90;;
19171;SDS011;9718;52.200;21.052;2022-09-09T02:13:47;16.10;;;7.47;;
19171;SDS011;9718;52.200;21.052;2022-09-09T02:16:18;14.63;;;7.43;;
19171;SDS011;9718;52.200;21.052;2022-09-09T02:21:41;13.57;;;7.60;;
19171;SDS011;9718;52.200;21.052;2022-09-09T02:24:10;19.50;;;7.03;;
19171;SDS011;9718;52.200;21.052;2022-09-09T02:26:41;15.20;;;7.77;;
19171;SDS011;9718;52.200;21.052;2022-09-09T02:29:16;16.43;;;7.97;;
19171;SDS011;9718;52.200;21.052;2022-09-09T02:31:47;17.57;;;7.27;;
19171;SDS011;9718;52.200;21.052;2022-09-09T02:34:18;18.43;;;7.57;;
19171;SDS011;9718;52.200;21.052;2022-09-09T02:36:48;13.40;;;7.20;;
19171;SDS011;9718;52.200;21.052;2022-09-09T02:39:20;17.07;;;7.27;;
19171;SDS011;9718;52.200;21.052;2022-09-09T02:41:47;14.67;;;7.83;;
19171;SDS011;9718;52.200;21.052;2022-09-09T02:44:16;15.73;;;7.33;;
19171;SDS011;9718;52.200;21.052;2022-09-09T02:46:53;15.67;;;7.80;;
19171;SDS011;9718;52.200;21.052;2022-09-09T02:50:22;16.20;;;8.57;;
19171;SDS011;9718;52.200;21.052;2022-09-09T02:58:17;15.93;;;8.30;;
19171;SDS011;9718;52.200;21.052;2022-09-09T03:00:47;18.07;;;8.20;;
19171;SDS011;9718;52.200;21.052;2022-09-09T03:03:16;18.53;;;9.10;;
19171;SDS011;9718;52.200;21.052;2022-09-09T03:05:48;17.93;;;7.13;;
19171;SDS011;9718;52.200;21.052;2022-09-09T03:08:19;16.30;;;8.30;;
19171;SDS011;9718;52.200;21.052;2022-09-09T03:10:50;16.80;;;7.90;;
19171;SDS011;9718;52.200;21.052;2022-09-09T03:13:21;14.70;;;8.07;;
19171;SDS011;9718;52.200;21.052;2022-09-09T03:15:48;15.87;;;8.43;;
19171;SDS011;9718;52.200;21.052;2022-09-09T03:18:15;16.37;;;7.13;;
19171;SDS011;9718;52.200;21.052;2022-09-09T03:20:43;15.93;;;7.83;;
19171;SDS011;9718;52.200;21.052;2022-09-09T03:23:10;15.50;;;8.63;;
19171;SDS011;9718;52.200;21.052;2022-09-09T03:25:51;17.77;;;8.43;;
19171;SDS011;9718;52.200;21.052;2022-09-09T03:28:18;15.07;;;8.00;;
19171;SDS011;9718;52.200;21.052;2022-09-09T03:30:47;18.47;;;8.50;;
19171;SDS011;9718;52.200;21.052;2022-09-09T03:33:15;16.83;;;8.90;;
19171;SDS011;9718;52.200;21.052;2022-09-09T03:35:46;17.77;;;8.07;;
19171;SDS011;9718;52.200;21.052;2022-09-09T03:38:17;14.87;;;7.47;;
19171;SDS011;9718;52.200;21.052;2022-09-09T03:40:48;16.73;;;7.63;;
19171;SDS011;9718;52.200;21.052;2022-09-09T03:43:16;17.17;;;8.87;;
19171;SDS011;9718;52.200;21.052;2022-09-09T03:45:47;15.00;;;7.60;;
19171;SDS011;9718;52.200;21.052;2022-09-09T03:48:15;13.17;;;7.53;;
19171;SDS011;9718;52.200;21.052;2022-09-09T03:50:44;20.93;;;8.20;;
19171;SDS011;9718;52.200;21.052;2022-09-09T03:53:13;15.87;;;8.20;;
19171;SDS011;9718;52.200;21.052;2022-09-09T03:55:48;16.93;;;8.10;;
19171;SDS011;9718;52.200;21.052;2022-09-09T03:58:19;17.97;;;8.23;;
19171;SDS011;9718;52.200;21.052;2022-09-09T04:00:55;13.77;;;7.80;;
19171;SDS011;9718;52.200;21.052;2022-09-09T04:03:26;18.80;;;8.23;;
19171;SDS011;9718;52.200;21.052;2022-09-09T04:05:54;14.07;;;7.83;;
19171;SDS011;9718;52.200;21.052;2022-09-09T04:08:23;16.43;;;7.83;;
19171;SDS011;9718;52.200;21.052;2022-09-09T04:10:53;13.77;;;7.97;;
19171;SDS011;9718;52.200;21.052;2022-09-09T04:13:25;13.23;;;7.83;;
19171;SDS011;9718;52.200;21.052;2022-09-09T04:15:54;16.83;;;8.33;;
19171;SDS011;9718;52.200;21.052;2022-09-09T04:18:24;14.67;;;7.77;;
19171;SDS011;9718;52.200;21.052;2022-09-09T04:20:56;15.90;;;8.60;;
19171;SDS011;9718;52.200;21.052;2022-09-09T04:23:25;13.07;;;7.70;;
19171;SDS011;9718;52.200;21.052;2022-09-09T04:25:57;18.00;;;8.33;;
19171;SDS011;9718;52.200;21.052;2022-09-09T04:28:26;15.60;;;8.10;;
19171;SDS011;9718;52.200;21.052;2022-09-09T04:30:55;12.27;;;7.43;;
19171;SDS011;9718;52.200;21.052;2022-09-09T04:33:29;15.27;;;7.07;;
19171;SDS011;9718;52.200;21.052;2022-09-09T04:36:02;15.37;;;7.37;;
19171;SDS011;9718;52.200;21.052;2022-09-09T04:38:31;14.57;;;6.63;;
19171;SDS011;9718;52.200;21.052;2022-09-09T04:41:00;15.93;;;7.17;;
19171;SDS011;9718;52.200;21.052;2022-09-09T04:43:27;12.97;;;6.67;;
19171;SDS011;9718;52.200;21.052;2022-09-09T04:45:58;13.83;;;7.30;;
19171;SDS011;9718;52.200;21.052;2022-09-09T04:48:26;13.87;;;7.40;;
19171;SDS011;9718;52.200;21.052;2022-09-09T04:51:02;16.23;;;6.93;;
19171;SDS011;9718;52.200;21.052;2022-09-09T04:53:36;15.03;;;7.23;;
19171;SDS011;9718;52.200;21.052;2022-09-09T04:56:05;12.63;;;7.33;;
19171;SDS011;9718;52.200;21.052;2022-09-09T04:58:35;18.47;;;11.27;;
19171;SDS011;9718;52.200;21.052;2022-09-09T05:01:07;16.53;;;7.63;;
19171;SDS011;9718;52.200;21.052;2022-09-09T05:03:37;14.43;;;6.60;;
19171;SDS011;9718;52.200;21.052;2022-09-09T05:08:36;14.17;;;6.83;;
19171;SDS011;9718;52.200;21.052;2022-09-09T05:11:14;13.00;;;7.33;;
19171;SDS011;9718;52.200;21.052;2022-09-09T05:14:05;18.63;;;9.10;;
19171;SDS011;9718;52.200;21.052;2022-09-09T05:16:32;13.00;;;6.43;;
19171;SDS011;9718;52.200;21.052;2022-09-09T05:19:00;13.93;;;6.80;;
19171;SDS011;9718;52.200;21.052;2022-09-09T05:21:30;11.63;;;6.80;;
19171;SDS011;9718;52.200;21.052;2022-09-09T05:23:58;11.03;;;6.20;;
19171;SDS011;9718;52.200;21.052;2022-09-09T05:26:27;12.43;;;6.93;;
19171;SDS011;9718;52.200;21.052;2022-09-09T05:28:56;10.57;;;6.07;;
19171;SDS011;9718;52.200;21.052;2022-09-09T05:31:23;13.97;;;6.20;;
19171;SDS011;9718;52.200;21.052;2022-09-09T05:33:52;11.17;;;6.17;;
19171;SDS011;9718;52.200;21.052;2022-09-09T05:36:23;12.27;;;6.40;;
19171;SDS011;9718;52.200;21.052;2022-09-09T05:38:51;13.20;;;7.30;;
19171;SDS011;9718;52.200;21.052;2022-09-09T05:41:20;12.60;;;7.60;;
19171;SDS011;9718;52.200;21.052;2022-09-09T05:43:50;17.17;;;8.20;;
19171;SDS011;9718;52.200;21.052;2022-09-09T05:46:18;12.90;;;7.27;;
19171;SDS011;9718;52.200;21.052;2022-09-09T05:48:54;12.03;;;6.47;;
19171;SDS011;9718;52.200;21.052;2022-09-09T05:51:24;16.13;;;7.90;;
19171;SDS011;9718;52.200;21.052;2022-09-09T05:53:54;13.40;;;6.03;;
19171;SDS011;9718;52.200;21.052;2022-09-09T05:56:36;11.77;;;5.80;;
19171;SDS011;9718;52.200;21.052;2022-09-09T05:59:03;13.43;;;6.93;;
19171;SDS011;9718;52.200;21.052;2022-09-09T06:01:35;11.97;;;6.00;;
19171;SDS011;9718;52.200;21.052;2022-09-09T06:04:07;11.20;;;6.30;;
19171;SDS011;9718;52.200;21.052;2022-09-09T06:06:36;12.07;;;6.80;;
19171;SDS011;9718;52.200;21.052;2022-09-09T06:09:06;15.03;;;7.47;;
19171;SDS011;9718;52.200;21.052;2022-09-09T06:11:37;13.10;;;6.87;;
19171;SDS011;9718;52.200;21.052;2022-09-09T06:14:05;9.80;;;6.00;;
19171;SDS011;9718;52.200;21.052;2022-09-09T06:16:34;13.80;;;6.73;;
19171;SDS011;9718;52.200;21.052;2022-09-09T06:19:02;18.17;;;10.73;;
19171;SDS011;9718;52.200;21.052;2022-09-09T06:21:31;13.33;;;7.77;;
19171;SDS011;9718;52.200;21.052;2022-09-09T06:24:01;10.97;;;6.83;;
19171;SDS011;9718;52.200;21.052;2022-09-09T06:26:33;10.87;;;6.17;;
19171;SDS011;9718;52.200;21.052;2022-09-09T06:29:02;11.60;;;7.00;;
19171;SDS011;9718;52.200;21.052;2022-09-09T06:31:31;11.57;;;6.77;;
19171;SDS011;9718;52.200;21.052;2022-09-09T06:34:01;12.20;;;6.90;;
19171;SDS011;9718;52.200;21.052;2022-09-09T06:36:31;15.03;;;6.30;;
19171;SDS011;9718;52.200;21.052;2022-09-09T06:39:00;13.97;;;6.80;;
19171;SDS011;9718;52.200;21.052;2022-09-09T06:41:29;12.37;;;7.20;;
19171;SDS011;9718;52.200;21.052;2022-09-09T06:43:57;10.00;;;6.97;;
19171;SDS011;9718;52.200;21.052;2022-09-09T06:46:25;14.60;;;7.00;;
19171;SDS011;9718;52.200;21.052;2022-09-09T06:48:54;12.90;;;7.27;;
19171;SDS011;9718;52.200;21.052;2022-09-09T06:51:26;13.63;;;7.27;;
19171;SDS011;9718;52.200;21.052;2022-09-09T06:53:56;12.20;;;7.10;;
19171;SDS011;9718;52.200;21.052;2022-09-09T06:59:00;16.33;;;7.00;;
19171;SDS011;9718;52.200;21.052;2022-09-09T07:01:34;16.73;;;7.30;;
19171;SDS011;9718;52.200;21.052;2022-09-09T07:04:04;13.97;;;7.40;;
19171;SDS011;9718;52.200;21.052;2022-09-09T07:06:38;12.67;;;8.50;;
19171;SDS011;9718;52.200;21.052;2022-09-09T07:09:11;14.70;;;7.87;;
19171;SDS011;9718;52.200;21.052;2022-09-09T07:11:41;15.73;;;10.13;;
19171;SDS011;9718;52.200;21.052;2022-09-09T07:14:13;12.43;;;7.07;;
19171;SDS011;9718;52.200;21.052;2022-09-09T07:16:41;11.87;;;7.73;;
19171;SDS011;9718;52.200;21.052;2022-09-09T07:19:09;14.63;;;8.37;;
19171;SDS011;9718;52.200;21.052;2022-09-09T07:21:38;14.73;;;8.33;;
19171;SDS011;9718;52.200;21.052;2022-09-09T07:24:06;15.60;;;8.30;;
19171;SDS011;9718;52.200;21.052;2022-09-09T07:26:37;15.37;;;8.30;;
19171;SDS011;9718;52.200;21.052;2022-09-09T07:29:07;17.67;;;9.13;;
19171;SDS011;9718;52.200;21.052;2022-09-09T07:31:36;12.60;;;8.07;;
19171;SDS011;9718;52.200;21.052;2022-09-09T07:34:06;13.97;;;8.40;;
19171;SDS011;9718;52.200;21.052;2022-09-09T07:36:35;15.97;;;8.40;;
19171;SDS011;9718;52.200;21.052;2022-09-09T07:39:05;15.17;;;8.43;;
19171;SDS011;9718;52.200;21.052;2022-09-09T07:41:38;15.73;;;8.90;;
19171;SDS011;9718;52.200;21.052;2022-09-09T07:44:13;13.63;;;8.13;;
19171;SDS011;9718;52.200;21.052;2022-09-09T07:46:42;15.37;;;8.70;;
19171;SDS011;9718;52.200;21.052;2022-09-09T07:49:11;20.53;;;8.80;;
19171;SDS011;9718;52.200;21.052;2022-09-09T07:51:40;18.23;;;9.60;;
19171;SDS011;9718;52.200;21.052;2022-09-09T07:54:10;16.97;;;9.80;;
19171;SDS011;9718;52.200;21.052;2022-09-09T07:56:43;22.37;;;12.03;;
19171;SDS011;9718;52.200;21.052;2022-09-09T07:59:22;14.30;;;8.43;;
19171;SDS011;9718;52.200;21.052;2022-09-09T08:01:51;17.50;;;9.03;;
19171;SDS011;9718;52.200;21.052;2022-09-09T08:04:22;15.63;;;7.93;;
19171;SDS011;9718;52.200;21.052;2022-09-09T08:06:51;14.30;;;8.50;;
19171;SDS011;9718;52.200;21.052;2022-09-09T08:09:21;16.23;;;8.57;;
19171;SDS011;9718;52.200;21.052;2022-09-09T08:11:51;16.87;;;9.13;;
19171;SDS011;9718;52.200;21.052;2022-09-09T08:14:19;16.80;;;9.80;;
19171;SDS011;9718;52.200;21.052;2022-09-09T08:16:47;15.17;;;9.20;;
19171;SDS011;9718;52.200;21.052;2022-09-09T08:19:15;18.20;;;9.67;;
19171;SDS011;9718;52.200;21.052;2022-09-09T08:21:43;20.30;;;9.60;;
19171;SDS011;9718;52.200;21.052;2022-09-09T08:24:11;17.80;;;9.60;;
19171;SDS011;9718;52.200;21.052;2022-09-09T08:26:41;14.17;;;8.43;;
19171;SDS011;9718;52.200;21.052;2022-09-09T08:29:12;18.13;;;10.50;;
19171;SDS011;9718;52.200;21.052;2022-09-09T08:31:42;16.77;;;9.03;;
19171;SDS011;9718;52.200;21.052;2022-09-09T08:34:14;19.40;;;9.13;;
19171;SDS011;9718;52.200;21.052;2022-09-09T08:36:42;17.57;;;10.33;;
19171;SDS011;9718;52.200;21.052;2022-09-09T08:39:11;18.23;;;10.40;;
19171;SDS011;9718;52.200;21.052;2022-09-09T08:50:24;19.13;;;11.80;;
19171;SDS011;9718;52.200;21.052;2022-09-09T08:53:00;19.03;;;11.43;;
19171;SDS011;9718;52.200;21.052;2022-09-09T08:58:14;17.00;;;11.47;;
19171;SDS011;9718;52.200;21.052;2022-09-09T09:09:16;19.87;;;11.50;;
19171;SDS011;9718;52.200;21.052;2022-09-09T09:11:48;23.20;;;11.33;;
19171;SDS011;9718;52.200;21.052;2022-09-09T09:14:25;21.70;;;11.83;;
19171;SDS011;9718;52.200;21.052;2022-09-09T09:19:33;20.83;;;11.67;;
19171;SDS011;9718;52.200;21.052;2022-09-09T09:22:06;22.90;;;12.77;;
19171;SDS011;9718;52.200;21.052;2022-09-09T09:24:45;17.63;;;10.80;;
19171;SDS011;9718;52.200;21.052;2022-09-09T09:29:56;21.43;;;12.23;;
19171;SDS011;9718;52.200;21.052;2022-09-09T09:33:06;23.50;;;11.90;;
19171;SDS011;9718;52.200;21.052;2022-09-09T09:35:40;20.00;;;11.73;;
19171;SDS011;9718;52.200;21.052;2022-09-09T09:38:21;19.70;;;11.90;;
19171;SDS011;9718;52.200;21.052;2022-09-09T09:41:14;23.23;;;12.57;;
19171;SDS011;9718;52.200;21.052;2022-09-09T09:43:42;23.13;;;12.03;;
19171;SDS011;9718;52.200;21.052;2022-09-09T09:46:22;18.40;;;11.40;;
19171;SDS011;9718;52.200;21.052;2022-09-09T09:49:02;21.33;;;12.43;;
19171;SDS011;9718;52.200;21.052;2022-09-09T09:51:32;23.93;;;12.50;;
19171;SDS011;9718;52.200;21.052;2022-09-09T09:54:23;23.93;;;13.87;;
19171;SDS011;9718;52.200;21.052;2022-09-09T09:57:09;20.83;;;12.03;;
19171;SDS011;9718;52.200;21.052;2022-09-09T09:59:38;21.33;;;12.70;;
19171;SDS011;9718;52.200;21.052;2022-09-09T10:02:20;24.63;;;13.27;;
19171;SDS011;9718;52.200;21.052;2022-09-09T10:05:03;27.03;;;12.93;;
19171;SDS011;9718;52.200;21.052;2022-09-09T10:16:04;27.17;;;15.07;;
19171;SDS011;9718;52.200;21.052;2022-09-09T10:21:26;28.63;;;13.70;;
19171;SDS011;9718;52.200;21.052;2022-09-09T10:35:22;26.23;;;15.33;;
19171;SDS011;9718;52.200;21.052;2022-09-09T10:38:13;25.00;;;15.23;;
19171;SDS011;9718;52.200;21.052;2022-09-09T10:40:50;26.10;;;15.40;;
19171;SDS011;9718;52.200;21.052;2022-09-09T10:51:58;29.80;;;16.73;;
19171;SDS011;9718;52.200;21.052;2022-09-09T10:57:40;25.17;;;14.93;;
19171;SDS011;9718;52.200;21.052;2022-09-09T11:00:17;33.43;;;16.13;;
19171;SDS011;9718;52.200;21.052;2022-09-09T11:02:51;25.70;;;15.53;;
19171;SDS011;9718;52.200;21.052;2022-09-09T11:08:16;33.23;;;16.37;;
19171;SDS011;9718;52.200;21.052;2022-09-09T11:13:55;26.57;;;14.87;;
19171;SDS011;9718;52.200;21.052;2022-09-09T11:16:30;27.67;;;15.10;;
19171;SDS011;9718;52.200;21.052;2022-09-09T11:21:53;31.07;;;17.90;;
19171;SDS011;9718;52.200;21.052;2022-09-09T11:27:00;30.73;;;17.63;;
19171;SDS011;9718;52.200;21.052;2022-09-09T11:41:40;28.63;;;16.77;;
19171;SDS011;9718;52.200;21.052;2022-09-09T11:44:11;34.37;;;17.83;;
19171;SDS011;9718;52.200;21.052;2022-09-09T11:46:44;39.93;;;17.87;;
19171;SDS011;9718;52.200;21.052;2022-09-09T11:51:55;33.13;;;18.03;;
19171;SDS011;9718;52.200;21.052;2022-09-09T11:54:29;29.27;;;17.20;;
19171;SDS011;9718;52.200;21.052;2022-09-09T11:56:59;30.80;;;17.87;;
19171;SDS011;9718;52.200;21.052;2022-09-09T11:59:27;35.73;;;17.27;;
19171;SDS011;9718;52.200;21.052;2022-09-09T12:04:46;33.43;;;18.97;;
19171;SDS011;9718;52.200;21.052;2022-09-09T12:10:05;37.90;;;18.77;;
19171;SDS011;9718;52.200;21.052;2022-09-09T12:12:47;29.47;;;16.13;;
19171;SDS011;9718;52.200;21.052;2022-09-09T12:17:48;36.23;;;18.47;;
19171;SDS011;9718;52.200;21.052;2022-09-09T12:25:49;35.30;;;18.13;;
19171;SDS011;9718;52.200;21.052;2022-09-09T12:28:44;33.20;;;19.07;;
19171;SDS011;9718;52.200;21.052;2022-09-09T12:34:18;35.37;;;19.20;;
19171;SDS011;9718;52.200;21.052;2022-09-09T12:36:50;34.57;;;19.20;;
19171;SDS011;9718;52.200;21.052;2022-09-09T12:39:40;35.53;;;19.90;;
19171;SDS011;9718;52.200;21.052;2022-09-09T12:42:19;36.60;;;19.30;;
19171;SDS011;9718;52.200;21.052;2022-09-09T12:44:54;40.70;;;21.57;;
19171;SDS011;9718;52.200;21.052;2022-09-09T12:52:55;37.30;;;19.93;;
19171;SDS011;9718;52.200;21.052;2022-09-09T12:55:28;37.03;;;19.93;;
19171;SDS011;9718;52.200;21.052;2022-09-09T12:58:00;37.47;;;20.23;;
19171;SDS011;9718;52.200;21.052;2022-09-09T13:00:32;39.80;;;20.43;;
19171;SDS011;9718;52.200;21.052;2022-09-09T13:03:03;34.80;;;19.60;;
19171;SDS011;9718;52.200;21.052;2022-09-09T13:05:44;43.87;;;19.83;;
19171;SDS011;9718;52.200;21.052;2022-09-09T13:08:14;39.80;;;18.53;;
19171;SDS011;9718;52.200;21.052;2022-09-09T13:13:28;33.07;;;18.63;;
19171;SDS011;9718;52.200;21.052;2022-09-09T13:16:06;38.60;;;19.07;;
19171;SDS011;9718;52.200;21.052;2022-09-09T13:18:44;37.40;;;19.40;;
19171;SDS011;9718;52.200;21.052;2022-09-09T13:21:12;36.93;;;18.47;;
19171;SDS011;9718;52.200;21.052;2022-09-09T13:23:40;36.93;;;18.67;;
19171;SDS011;9718;52.200;21.052;2022-09-09T13:26:25;39.13;;;18.87;;
19171;SDS011;9718;52.200;21.052;2022-09-09T13:28:53;38.57;;;18.30;;
19171;SDS011;9718;52.200;21.052;2022-09-09T13:31:29;45.33;;;19.20;;
19171;SDS011;9718;52.200;21.052;2022-09-09T13:33:58;41.60;;;18.20;;
19171;SDS011;9718;52.200;21.052;2022-09-09T13:36:29;43.87;;;18.93;;
19171;SDS011;9718;52.200;21.052;2022-09-09T13:38:59;40.70;;;17.73;;
19171;SDS011;9718;52.200;21.052;2022-09-09T13:41:35;38.63;;;18.47;;
19171;SDS011;9718;52.200;21.052;2022-09-09T13:44:17;42.10;;;18.07;;
19171;SDS011;9718;52.200;21.052;2022-09-09T13:47:03;36.53;;;17.53;;
19171;SDS011;9718;52.200;21.052;2022-09-09T13:49:39;36.20;;;18.07;;
19171;SDS011;9718;52.200;21.052;2022-09-09T13:52:14;35.37;;;16.63;;
19171;SDS011;9718;52.200;21.052;2022-09-09T13:54:46;38.43;;;17.17;;
19171;SDS011;9718;52.200;21.052;2022-09-09T13:57:18;34.40;;;16.17;;
19171;SDS011;9718;52.200;21.052;2022-09-09T13:59:48;35.40;;;17.70;;
19171;SDS011;9718;52.200;21.052;2022-09-09T14:02:32;38.00;;;18.67;;
19171;SDS011;9718;52.200;21.052;2022-09-09T14:05:00;39.23;;;18.50;;
19171;SDS011;9718;52.200;21.052;2022-09-09T14:07:28;38.33;;;16.53;;
19171;SDS011;9718;52.200;21.052;2022-09-09T14:09:55;41.77;;;16.87;;
19171;SDS011;9718;52.200;21.052;2022-09-09T14:12:23;35.40;;;16.73;;
19171;SDS011;9718;52.200;21.052;2022-09-09T14:14:50;37.23;;;16.07;;
19171;SDS011;9718;52.200;21.052;2022-09-09T14:17:18;37.43;;;16.17;;
19171;SDS011;9718;52.200;21.052;2022-09-09T14:19:45;35.13;;;16.57;;
19171;SDS011;9718;52.200;21.052;2022-09-09T14:22:12;38.07;;;17.07;;
19171;SDS011;9718;52.200;21.052;2022-09-09T14:24:41;37.90;;;17.30;;
19171;SDS011;9718;52.200;21.052;2022-09-09T14:27:08;34.13;;;16.87;;
19171;SDS011;9718;52.200;21.052;2022-09-09T14:29:36;46.27;;;19.40;;
19171;SDS011;9718;52.200;21.052;2022-09-09T14:32:03;37.47;;;18.47;;
19171;SDS011;9718;52.200;21.052;2022-09-09T14:34:36;39.50;;;19.37;;
19171;SDS011;9718;52.200;21.052;2022-09-09T14:37:03;38.40;;;18.50;;
19171;SDS011;9718;52.200;21.052;2022-09-09T14:39:31;40.60;;;17.80;;
19171;SDS011;9718;52.200;21.052;2022-09-09T14:41:59;39.00;;;18.07;;
19171;SDS011;9718;52.200;21.052;2022-09-09T14:44:26;42.67;;;19.07;;
19171;SDS011;9718;52.200;21.052;2022-09-09T14:46:54;40.27;;;19.60;;
19171;SDS011;9718;52.200;21.052;2022-09-09T14:49:21;45.90;;;21.07;;
19171;SDS011;9718;52.200;21.052;2022-09-09T14:51:49;42.50;;;19.97;;
19171;SDS011;9718;52.200;21.052;2022-09-09T14:54:17;42.23;;;20.50;;
19171;SDS011;9718;52.200;21.052;2022-09-09T14:56:44;43.03;;;20.70;;
19171;SDS011;9718;52.200;21.052;2022-09-09T14:59:11;38.97;;;18.77;;
19171;SDS011;9718;52.200;21.052;2022-09-09T15:01:40;40.30;;;18.67;;
19171;SDS011;9718;52.200;21.052;2022-09-09T15:04:10;42.87;;;19.10;;
19171;SDS011;9718;52.200;21.052;2022-09-09T15:06:42;37.03;;;18.23;;
19171;SDS011;9718;52.200;21.052;2022-09-09T15:09:14;36.53;;;18.60;;
19171;SDS011;9718;52.200;21.052;2022-09-09T15:11:42;35.60;;;19.03;;
19171;SDS011;9718;52.200;21.052;2022-09-09T15:14:11;37.73;;;18.50;;
19171;SDS011;9718;52.200;21.052;2022-09-09T15:16:39;35.53;;;18.00;;
19171;SDS011;9718;52.200;21.052;2022-09-09T15:19:07;32.13;;;18.17;;
19171;SDS011;9718;52.200;21.052;2022-09-09T15:21:37;35.47;;;17.53;;
19171;SDS011;9718;52.200;21.052;2022-09-09T15:24:11;36.97;;;18.50;;
19171;SDS011;9718;52.200;21.052;2022-09-09T15:26:40;34.50;;;17.93;;
19171;SDS011;9718;52.200;21.052;2022-09-09T15:29:08;37.93;;;19.97;;
19171;SDS011;9718;52.200;21.052;2022-09-09T15:31:35;34.27;;;16.80;;
19171;SDS011;9718;52.200;21.052;2022-09-09T15:34:05;31.87;;;17.40;;
19171;SDS011;9718;52.200;21.052;2022-09-09T15:36:34;34.20;;;18.73;;
19171;SDS011;9718;52.200;21.052;2022-09-09T15:39:09;35.87;;;18.17;;
19171;SDS011;9718;52.200;21.052;2022-09-09T15:41:43;31.20;;;16.80;;
19171;SDS011;9718;52.200;21.052;2022-09-09T15:44:11;33.03;;;17.90;;
19171;SDS011;9718;52.200;21.052;2022-09-09T15:49:09;38.80;;;18.10;;
19171;SDS011;9718;52.200;21.052;2022-09-09T15:51:45;33.87;;;17.20;;
19171;SDS011;9718;52.200;21.052;2022-09-09T15:54:14;34.73;;;17.80;;
19171;SDS011;9718;52.200;21.052;2022-09-09T15:56:44;39.33;;;18.10;;
19171;SDS011;9718;52.200;21.052;2022-09-09T15:59:13;37.80;;;18.23;;
19171;SDS011;9718;52.200;21.052;2022-09-09T16:01:41;40.17;;;17.70;;
19171;SDS011;9718;52.200;21.052;2022-09-09T16:04:10;33.23;;;17.30;;
19171;SDS011;9718;52.200;21.052;2022-09-09T16:06:38;34.83;;;18.50;;
19171;SDS011;9718;52.200;21.052;2022-09-09T16:09:06;39.30;;;18.67;;
19171;SDS011;9718;52.200;21.052;2022-09-09T16:11:35;37.33;;;17.47;;
19171;SDS011;9718;52.200;21.052;2022-09-09T16:14:04;33.67;;;17.43;;
19171;SDS011;9718;52.200;21.052;2022-09-09T16:16:33;36.03;;;18.57;;
19171;SDS011;9718;52.200;21.052;2022-09-09T16:19:06;33.97;;;17.00;;
19171;SDS011;9718;52.200;21.052;2022-09-09T16:21:38;36.00;;;17.57;;
19171;SDS011;9718;52.200;21.052;2022-09-09T16:24:10;33.80;;;17.23;;
19171;SDS011;9718;52.200;21.052;2022-09-09T16:26:42;29.30;;;16.60;;
19171;SDS011;9718;52.200;21.052;2022-09-09T16:29:13;30.50;;;15.43;;
19171;SDS011;9718;52.200;21.052;2022-09-09T16:31:42;34.73;;;16.80;;
19171;SDS011;9718;52.200;21.052;2022-09-09T16:34:10;34.77;;;16.83;;
19171;SDS011;9718;52.200;21.052;2022-09-09T16:36:38;27.47;;;15.90;;
19171;SDS011;9718;52.200;21.052;2022-09-09T16:39:08;28.33;;;16.43;;
19171;SDS011;9718;52.200;21.052;2022-09-09T16:41:41;31.93;;;15.23;;
19171;SDS011;9718;52.200;21.052;2022-09-09T16:44:11;28.83;;;15.87;;
19171;SDS011;9718;52.200;21.052;2022-09-09T16:46:40;29.57;;;16.73;;
19171;SDS011;9718;52.200;21.052;2022-09-09T16:49:10;28.83;;;15.20;;
19171;SDS011;9718;52.200;21.052;2022-09-09T16:51:40;34.43;;;16.80;;
19171;SDS011;9718;52.200;21.052;2022-09-09T16:54:14;35.33;;;16.27;;
19171;SDS011;9718;52.200;21.052;2022-09-09T16:56:45;32.77;;;15.40;;
19171;SDS011;9718;52.200;21.052;2022-09-09T16:59:15;29.03;;;15.83;;
19171;SDS011;9718;52.200;21.052;2022-09-09T17:01:45;35.63;;;17.07;;
19171;SDS011;9718;52.200;21.052;2022-09-09T17:04:21;34.50;;;17.30;;
19171;SDS011;9718;52.200;21.052;2022-09-09T17:06:52;30.50;;;16.37;;
19171;SDS011;9718;52.200;21.052;2022-09-09T17:09:21;35.87;;;16.47;;
19171;SDS011;9718;52.200;21.052;2022-09-09T17:11:49;39.93;;;18.03;;
19171;SDS011;9718;52.200;21.052;2022-09-09T17:14:18;32.17;;;16.57;;
19171;SDS011;9718;52.200;21.052;2022-09-09T17:16:47;32.83;;;16.43;;
19171;SDS011;9718;52.200;21.052;2022-09-09T17:19:15;33.33;;;16.53;;
19171;SDS011;9718;52.200;21.052;2022-09-09T17:21:42;30.50;;;15.63;;
19171;SDS011;9718;52.200;21.052;2022-09-09T17:24:30;38.10;;;18.23;;
19171;SDS011;9718;52.200;21.052;2022-09-09T17:26:59;27.83;;;15.80;;
19171;SDS011;9718;52.200;21.052;2022-09-09T17:29:27;36.23;;;16.83;;
19171;SDS011;9718;52.200;21.052;2022-09-09T17:31:55;33.50;;;16.70;;
19171;SDS011;9718;52.200;21.052;2022-09-09T17:34:23;34.93;;;18.07;;
19171;SDS011;9718;52.200;21.052;2022-09-09T17:36:51;32.43;;;16.73;;
19171;SDS011;9718;52.200;21.052;2022-09-09T17:39:19;39.40;;;17.67;;
19171;SDS011;9718;52.200;21.052;2022-09-09T17:41:46;33.23;;;17.80;;
19171;SDS011;9718;52.200;21.052;2022-09-09T17:44:13;38.90;;;16.83;;
19171;SDS011;9718;52.200;21.052;2022-09-09T17:46:42;32.17;;;16.23;;
19171;SDS011;9718;52.200;21.052;2022-09-09T17:49:11;34.60;;;16.37;;